Uvalde Research's Hourly Summary for Monday, July 9, 2018
Hour Temp
(f)
RH
(%)
Solar Rad.
(MJ/m2)
Rainfall
(in)
Wind
(mph)
7/9/2018 12:00 AM 75 88 0 0 2.04
7/9/2018 1:00 AM 74 90 0 0 0.11
7/9/2018 2:00 AM 73 92 0 0 0.18
7/9/2018 3:00 AM 74 92 0 0 1.89
7/9/2018 4:00 AM 74 93 0 0 0.4
7/9/2018 5:00 AM 74 94 0 0 0
7/9/2018 6:00 AM 74 95 0 0 0.18
7/9/2018 7:00 AM 75 95 0.04 0 0.99
7/9/2018 8:00 AM 75 95 0.15 0 1.53
7/9/2018 9:00 AM 75 95 0.17 0.41 0.6
7/9/2018 10:00 AM 76 96 0.85 0 0.19
7/9/2018 11:00 AM 79 87 1.1 0 0.31
7/9/2018 12:00 PM 78 89 0.48 0.02 2.62
7/9/2018 1:00 PM 75 93 0.81 0.01 1.48
7/9/2018 2:00 PM 78 90 1.18 0 3.17
7/9/2018 3:00 PM 77 86 0.97 0 3.62
7/9/2018 4:00 PM 79 80 1.14 0 3.54
7/9/2018 5:00 PM 81 74 0.93 0 3.77
7/9/2018 6:00 PM 80 74 0.54 0 3.56
7/9/2018 7:00 PM 79 78 0.27 0 3.04
7/9/2018 8:00 PM 79 78 0.05 0 2.59
7/9/2018 9:00 PM 78 78 0 0 3.44
7/9/2018 10:00 PM 77 81 0 0 2.71
7/9/2018 11:00 PM 75 85 0 0 2.82
Data Summary 76 87 8.68 0.44 1.87